Time;durP1;ratioP1;P1;durP2;ratioP2;P2;SDS_P1;SDS_P2;PMS_P1;PMS_P2;Temp;Humidity;BMP_temperature;BMP_pressure;BME280_temperature;BME280_humidity;BME280_pressure;Samples;Min_cycle;Max_cycle;Signal;HPM_P1;HPM_P2
2022/08/10 00:01:33;;;;;;;8.52;5.40;;;;;;;;;;5011177;28;20053;-46
2022/08/10 00:03:59;;;;;;;10.32;5.78;;;;;;;;;;5032523;28;20053;-45
2022/08/10 00:06:31;;;;;;;10.05;5.57;;;;;;;;;;5032430;28;20064;-44
2022/08/10 00:09:02;;;;;;;17.02;6.50;;;;;;;;;;5030002;28;20049;-45
2022/08/10 00:11:28;;;;;;;9.50;5.15;;;;;;;;;;5012961;28;20123;-45
2022/08/10 00:13:55;;;;;;;9.95;5.18;;;;;;;;;;5009889;28;20061;-49
2022/08/10 00:19:05;;;;;;;10.85;5.53;;;;;;;;;;5016108;28;20060;-47
2022/08/10 00:21:45;;;;;;;7.28;4.97;;;;;;;;;;5015976;28;20065;-45
2022/08/10 00:24:14;;;;;;;12.45;5.53;;;;;;;;;;5015583;28;20064;-45
2022/08/10 00:26:44;;;;;;;9.90;5.38;;;;;;;;;;5016078;28;20111;-46
2022/08/10 00:29:14;;;;;;;12.80;5.13;;;;;;;;;;5015348;28;20144;-45
2022/08/10 00:31:42;;;;;;;6.55;4.93;;;;;;;;;;5015770;28;20157;-46
2022/08/10 00:34:08;;;;;;;6.53;4.78;;;;;;;;;;5034056;28;20053;-44
2022/08/10 00:36:36;;;;;;;7.35;4.80;;;;;;;;;;5030001;28;20053;-45
2022/08/10 00:39:04;;;;;;;9.00;4.60;;;;;;;;;;5015431;28;20367;-44
2022/08/10 00:41:32;;;;;;;10.32;5.65;;;;;;;;;;5015608;28;20352;-45
2022/08/10 00:44:03;;;;;;;8.93;4.93;;;;;;;;;;5015730;28;20046;-45
2022/08/10 00:46:33;;;;;;;9.30;5.25;;;;;;;;;;5014817;28;20076;-45
2022/08/10 00:49:03;;;;;;;7.53;5.05;;;;;;;;;;5015515;28;20058;-47
2022/08/10 00:51:31;;;;;;;8.52;5.25;;;;;;;;;;5015141;28;20085;-45
2022/08/10 00:54:07;;;;;;;7.05;4.70;;;;;;;;;;5015242;28;20067;-48
2022/08/10 00:56:36;;;;;;;9.10;4.80;;;;;;;;;;5015453;28;20120;-47
2022/08/10 00:59:05;;;;;;;9.77;4.85;;;;;;;;;;5015305;28;20081;-46
2022/08/10 01:01:34;;;;;;;8.85;5.40;;;;;;;;;;5014980;28;20057;-45
2022/08/10 01:04:06;;;;;;;7.68;4.60;;;;;;;;;;5015374;28;20077;-46
2022/08/10 01:06:40;;;;;;;7.22;4.53;;;;;;;;;;5015165;28;20082;-44
2022/08/10 01:09:11;;;;;;;6.65;4.13;;;;;;;;;;5015340;28;20128;-45
2022/08/10 01:11:42;;;;;;;9.60;5.03;;;;;;;;;;5015233;28;20069;-46
2022/08/10 01:14:18;;;;;;;7.40;4.78;;;;;;;;;;5004717;28;20050;-45
2022/08/10 01:16:55;;;;;;;12.10;5.65;;;;;;;;;;4995463;28;20116;-44
2022/08/10 01:19:32;;;;;;;9.20;5.50;;;;;;;;;;4995499;28;20078;-46
2022/08/10 01:22:18;;;;;;;9.43;5.60;;;;;;;;;;4996486;28;20112;-45
2022/08/10 01:25:05;;;;;;;10.10;5.28;;;;;;;;;;5014450;28;20073;-47
2022/08/10 01:27:36;;;;;;;14.43;6.65;;;;;;;;;;5014922;28;20065;-45
2022/08/10 01:30:09;;;;;;;11.30;6.53;;;;;;;;;;5014288;28;20492;-45
2022/08/10 01:32:40;;;;;;;8.88;5.32;;;;;;;;;;5014803;28;20092;-46
2022/08/10 01:35:11;;;;;;;8.88;5.28;;;;;;;;;;5014568;28;20054;-44
2022/08/10 01:37:45;;;;;;;7.65;4.65;;;;;;;;;;5014733;28;20147;-47
2022/08/10 01:40:17;;;;;;;9.93;5.00;;;;;;;;;;5014876;28;20089;-47
2022/08/10 01:42:44;;;;;;;10.43;5.80;;;;;;;;;;5014619;28;20056;-45
2022/08/10 01:45:26;;;;;;;9.07;5.28;;;;;;;;;;5014658;28;20053;-45
2022/08/10 01:50:49;;;;;;;9.50;5.57;;;;;;;;;;5014445;28;20057;-46
2022/08/10 01:53:23;;;;;;;11.30;6.25;;;;;;;;;;5014099;28;20597;-46
2022/08/10 01:55:53;;;;;;;8.20;5.30;;;;;;;;;;5014481;28;20049;-45
2022/08/10 01:58:30;;;;;;;11.25;5.72;;;;;;;;;;5014343;28;20045;-46
2022/08/10 02:01:00;;;;;;;6.13;4.35;;;;;;;;;;5014149;28;20398;-46
2022/08/10 02:03:30;;;;;;;21.20;5.82;;;;;;;;;;5014152;28;20124;-49
2022/08/10 02:06:07;;;;;;;8.57;5.72;;;;;;;;;;5014649;28;20080;-47
2022/08/10 02:08:35;;;;;;;12.18;5.53;;;;;;;;;;5014178;28;20050;-47
2022/08/10 02:11:01;;;;;;;8.30;5.25;;;;;;;;;;5014043;28;20075;-45
2022/08/10 02:13:38;;;;;;;10.95;6.47;;;;;;;;;;5009260;28;20054;-44
2022/08/10 02:16:14;;;;;;;10.15;5.50;;;;;;;;;;4994590;28;20178;-45
2022/08/10 02:18:42;;;;;;;8.10;5.38;;;;;;;;;;4994323;28;20054;-46
2022/08/10 02:21:11;;;;;;;7.00;4.75;;;;;;;;;;4999734;28;20046;-49
2022/08/10 02:23:51;;;;;;;7.45;4.47;;;;;;;;;;5013932;28;20060;-46
2022/08/10 02:26:21;;;;;;;9.82;6.55;;;;;;;;;;5013241;28;20054;-48
2022/08/10 02:28:49;;;;;;;9.48;5.35;;;;;;;;;;5013981;28;20367;-47
2022/08/10 02:31:23;;;;;;;11.98;5.78;;;;;;;;;;5013741;28;20053;-47
2022/08/10 02:33:51;;;;;;;10.43;5.85;;;;;;;;;;5013120;28;20050;-45
2022/08/10 02:36:20;;;;;;;12.63;7.13;;;;;;;;;;5013281;28;20062;-49
2022/08/10 02:38:49;;;;;;;10.27;5.63;;;;;;;;;;5013622;28;20085;-48
2022/08/10 02:41:26;;;;;;;9.30;5.65;;;;;;;;;;5013654;28;20053;-45
2022/08/10 02:43:54;;;;;;;13.13;5.88;;;;;;;;;;5013599;28;20072;-45
2022/08/10 02:46:26;;;;;;;10.35;5.50;;;;;;;;;;5013351;28;20057;-46
2022/08/10 02:48:58;;;;;;;10.52;6.13;;;;;;;;;;5013554;28;20152;-44
2022/08/10 02:51:32;;;;;;;9.35;6.00;;;;;;;;;;5013296;28;20053;-45
2022/08/10 02:54:03;;;;;;;11.38;5.80;;;;;;;;;;4993335;28;20422;-46
2022/08/10 02:56:33;;;;;;;8.23;5.43;;;;;;;;;;4993026;28;20482;-48
2022/08/10 02:59:03;;;;;;;10.38;6.07;;;;;;;;;;4992923;28;20390;-46
2022/08/10 03:01:34;;;;;;;8.45;5.45;;;;;;;;;;4993514;28;20050;-45
2022/08/10 03:04:05;;;;;;;9.57;5.30;;;;;;;;;;4993270;28;20057;-44
2022/08/10 03:06:36;;;;;;;11.65;5.80;;;;;;;;;;4993813;28;20050;-45
2022/08/10 03:09:06;;;;;;;10.77;6.82;;;;;;;;;;4997011;28;20041;-49
2022/08/10 03:11:36;;;;;;;10.13;5.53;;;;;;;;;;5013216;28;20054;-45
2022/08/10 03:14:04;;;;;;;9.55;5.90;;;;;;;;;;5007178;28;20050;-45
2022/08/10 03:16:39;;;;;;;7.97;5.43;;;;;;;;;;5013188;28;20061;-45
2022/08/10 03:19:08;;;;;;;8.95;4.85;;;;;;;;;;5012990;28;20056;-44
2022/08/10 03:21:35;;;;;;;7.75;4.57;;;;;;;;;;5013240;28;20111;-46
2022/08/10 03:24:03;;;;;;;8.55;4.25;;;;;;;;;;5013128;28;20057;-45
2022/08/10 03:26:31;;;;;;;7.65;4.25;;;;;;;;;;5012821;28;20054;-45
2022/08/10 03:29:03;;;;;;;7.15;4.65;;;;;;;;;;5013218;28;20050;-45
2022/08/10 03:31:31;;;;;;;8.45;4.40;;;;;;;;;;5013210;28;20108;-44
2022/08/10 03:34:00;;;;;;;7.10;4.47;;;;;;;;;;5012808;28;20060;-48
2022/08/10 03:36:30;;;;;;;7.65;4.15;;;;;;;;;;5012800;28;20065;-46
2022/08/10 03:38:58;;;;;;;6.97;4.22;;;;;;;;;;5013118;28;20050;-48
2022/08/10 03:41:31;;;;;;;8.45;4.78;;;;;;;;;;5012726;28;20359;-46
2022/08/10 03:44:01;;;;;;;8.23;4.25;;;;;;;;;;5012929;28;20504;-48
2022/08/10 03:46:31;;;;;;;9.90;4.95;;;;;;;;;;5014393;28;20132;-46
2022/08/10 03:49:05;;;;;;;10.65;5.32;;;;;;;;;;5016647;28;20065;-48
2022/08/10 03:51:34;;;;;;;9.95;5.32;;;;;;;;;;5016749;28;20104;-44
2022/08/10 03:54:04;;;;;;;7.38;4.80;;;;;;;;;;5016330;28;20058;-46
2022/08/10 03:56:34;;;;;;;7.78;4.43;;;;;;;;;;5016808;28;20057;-45
2022/08/10 03:59:03;;;;;;;12.90;5.18;;;;;;;;;;5016180;28;20608;-46
2022/08/10 04:01:31;;;;;;;8.32;4.78;;;;;;;;;;5016702;28;20129;-45
2022/08/10 04:04:08;;;;;;;10.20;4.95;;;;;;;;;;5016529;28;20045;-44
2022/08/10 04:06:37;;;;;;;7.32;4.38;;;;;;;;;;5016348;28;20352;-45
2022/08/10 04:09:07;;;;;;;10.18;5.03;;;;;;;;;;5016294;28;20034;-45
2022/08/10 04:11:39;;;;;;;7.50;4.00;;;;;;;;;;5016573;28;20057;-45
2022/08/10 04:14:06;;;;;;;10.32;4.68;;;;;;;;;;5015566;28;20124;-45
2022/08/10 04:16:36;;;;;;;7.32;3.85;;;;;;;;;;5016450;28;20057;-45
2022/08/10 04:19:13;;;;;;;9.10;4.60;;;;;;;;;;5016534;28;20112;-45
2022/08/10 04:21:43;;;;;;;9.45;5.00;;;;;;;;;;5016320;28;20128;-46
2022/08/10 04:24:10;;;;;;;9.00;5.22;;;;;;;;;;5015960;28;20129;-48
2022/08/10 04:26:41;;;;;;;7.10;4.50;;;;;;;;;;4977238;28;20059;-47
2022/08/10 04:29:11;;;;;;;33.63;5.50;;;;;;;;;;4976771;28;20133;-45
2022/08/10 04:31:42;;;;;;;8.60;4.10;;;;;;;;;;4976931;28;20069;-46
2022/08/10 04:34:26;;;;;;;7.70;4.05;;;;;;;;;;4976831;28;20056;-47
2022/08/10 04:36:57;;;;;;;6.35;4.10;;;;;;;;;;4976961;28;20070;-47
2022/08/10 04:39:25;;;;;;;8.65;4.30;;;;;;;;;;4976990;28;20043;-45
2022/08/10 04:41:53;;;;;;;9.77;4.85;;;;;;;;;;4977101;28;20055;-46
2022/08/10 04:44:23;;;;;;;10.90;4.30;;;;;;;;;;4976887;28;20046;-45
2022/08/10 04:46:52;;;;;;;7.32;3.97;;;;;;;;;;4976761;28;20051;-46
2022/08/10 04:49:30;;;;;;;6.82;4.47;;;;;;;;;;4976429;28;20463;-44
2022/08/10 04:52:00;;;;;;;9.80;4.65;;;;;;;;;;4976217;28;20393;-45
2022/08/10 04:54:28;;;;;;;10.93;3.70;;;;;;;;;;4976462;28;20054;-45
2022/08/10 04:56:55;;;;;;;10.02;4.55;;;;;;;;;;4976339;28;20190;-49
2022/08/10 04:59:25;;;;;;;5.63;3.88;;;;;;;;;;4976076;28;20415;-45
2022/08/10 05:01:52;;;;;;;10.05;3.58;;;;;;;;;;4976460;28;20079;-45
2022/08/10 05:04:33;;;;;;;16.40;4.05;;;;;;;;;;4976479;28;20050;-45
2022/08/10 05:07:01;;;;;;;8.05;3.83;;;;;;;;;;4976378;28;20054;-47
2022/08/10 05:09:27;;;;;;;6.35;3.35;;;;;;;;;;4976023;28;20091;-45
2022/08/10 05:11:58;;;;;;;14.60;3.38;;;;;;;;;;4976020;28;20058;-45
2022/08/10 05:14:24;;;;;;;5.32;2.88;;;;;;;;;;4974583;28;20066;-47
2022/08/10 05:16:54;;;;;;;6.32;2.90;;;;;;;;;;4976380;28;20058;-45
2022/08/10 05:19:36;;;;;;;5.60;3.10;;;;;;;;;;4976018;28;20390;-46
2022/08/10 05:22:03;;;;;;;6.70;3.13;;;;;;;;;;4975653;28;20419;-46
2022/08/10 05:24:31;;;;;;;10.32;2.80;;;;;;;;;;4981153;28;20073;-47
2022/08/10 05:27:00;;;;;;;4.53;3.00;;;;;;;;;;5015100;28;20065;-46
2022/08/10 05:29:30;;;;;;;7.97;2.60;;;;;;;;;;5014605;28;20413;-45
2022/08/10 05:31:59;;;;;;;5.22;2.28;;;;;;;;;;5014938;28;20132;-49
2022/08/10 05:34:33;;;;;;;6.22;2.38;;;;;;;;;;5014939;28;20084;-49
2022/08/10 05:37:04;;;;;;;4.85;2.50;;;;;;;;;;5014762;28;20057;-48
2022/08/10 05:39:34;;;;;;;8.63;2.53;;;;;;;;;;5014498;28;20358;-45
2022/08/10 05:42:03;;;;;;;4.43;2.70;;;;;;;;;;5014956;28;20056;-46
2022/08/10 05:44:30;;;;;;;15.25;3.03;;;;;;;;;;5014655;28;20061;-45
2022/08/10 05:47:00;;;;;;;4.97;2.47;;;;;;;;;;5014308;28;20473;-48
2022/08/10 05:49:29;;;;;;;6.25;2.70;;;;;;;;;;5014525;28;20116;-49
2022/08/10 05:51:58;;;;;;;6.53;2.63;;;;;;;;;;5014429;28;20064;-49
2022/08/10 05:54:26;;;;;;;4.10;2.20;;;;;;;;;;5014601;28;20081;-47
2022/08/10 05:56:54;;;;;;;4.25;2.08;;;;;;;;;;5014483;28;20053;-49
2022/08/10 05:59:25;;;;;;;6.07;2.40;;;;;;;;;;5014356;28;20065;-50
2022/08/10 06:01:56;;;;;;;3.67;2.10;;;;;;;;;;5014395;28;20050;-47
2022/08/10 06:04:25;;;;;;;3.33;2.00;;;;;;;;;;5013886;28;20494;-45
2022/08/10 06:06:53;;;;;;;5.20;1.77;;;;;;;;;;5013766;28;20701;-45
2022/08/10 06:09:23;;;;;;;2.95;1.67;;;;;;;;;;5013190;28;20042;-46
2022/08/10 06:11:52;;;;;;;3.08;1.50;;;;;;;;;;4994429;28;20140;-47
2022/08/10 06:17:15;;;;;;;3.50;1.70;;;;;;;;;;4959332;28;20050;-46
2022/08/10 06:19:45;;;;;;;5.38;1.90;;;;;;;;;;4993735;28;20538;-46
2022/08/10 06:22:16;;;;;;;3.80;1.60;;;;;;;;;;4996895;28;20053;-46
2022/08/10 06:24:47;;;;;;;2.22;1.52;;;;;;;;;;5013118;28;20066;-47
2022/08/10 06:27:15;;;;;;;2.35;1.50;;;;;;;;;;5011839;28;20046;-44
2022/08/10 06:29:45;;;;;;;38.17;3.97;;;;;;;;;;5013417;28;20049;-45
2022/08/10 06:32:13;;;;;;;6.18;1.83;;;;;;;;;;5013259;28;20634;-45
2022/08/10 06:34:50;;;;;;;2.20;1.35;;;;;;;;;;5013556;28;20054;-49
2022/08/10 06:37:28;;;;;;;9.50;2.00;;;;;;;;;;5013369;28;20054;-46
2022/08/10 06:39:55;;;;;;;2.85;1.63;;;;;;;;;;5012858;28;20528;-45
2022/08/10 06:42:26;;;;;;;10.15;2.20;;;;;;;;;;5013097;28;20054;-46
2022/08/10 06:45:02;;;;;;;3.00;1.48;;;;;;;;;;5013359;28;20061;-46
2022/08/10 06:47:32;;;;;;;2.15;1.38;;;;;;;;;;5013409;28;20058;-45
2022/08/10 06:50:05;;;;;;;6.03;1.63;;;;;;;;;;5013115;28;20060;-46
2022/08/10 06:52:36;;;;;;;3.38;1.48;;;;;;;;;;5013270;28;20056;-45
2022/08/10 06:55:06;;;;;;;2.03;1.40;;;;;;;;;;5013181;28;20060;-48
2022/08/10 06:57:37;;;;;;;76.05;5.95;;;;;;;;;;5013127;28;20336;-45
2022/08/10 07:00:05;;;;;;;4.88;1.60;;;;;;;;;;5012932;28;20439;-47
2022/08/10 07:02:39;;;;;;;3.55;1.55;;;;;;;;;;5012521;28;20133;-49
2022/08/10 07:05:08;;;;;;;4.50;1.75;;;;;;;;;;5013201;28;20413;-48
2022/08/10 07:07:42;;;;;;;3.40;1.45;;;;;;;;;;5013206;28;20046;-44
2022/08/10 07:10:10;;;;;;;4.15;1.73;;;;;;;;;;5000883;28;20124;-46
2022/08/10 07:12:46;;;;;;;3.05;1.42;;;;;;;;;;4997336;28;20412;-46
2022/08/10 07:15:12;;;;;;;3.47;1.60;;;;;;;;;;4994424;28;20058;-48
2022/08/10 07:17:43;;;;;;;5.47;1.40;;;;;;;;;;4993520;28;20070;-47
2022/08/10 07:20:21;;;;;;;1.98;1.20;;;;;;;;;;4993608;28;20050;-48
2022/08/10 07:22:56;;;;;;;3.47;1.40;;;;;;;;;;5005093;28;20057;-46
2022/08/10 07:25:24;;;;;;;2.00;1.25;;;;;;;;;;5016596;28;20076;-45
2022/08/10 07:27:52;;;;;;;2.15;1.38;;;;;;;;;;5016650;28;20060;-48
2022/08/10 07:30:20;;;;;;;4.65;1.85;;;;;;;;;;4996779;28;20058;-49
2022/08/10 07:32:49;;;;;;;3.25;1.48;;;;;;;;;;4996784;28;20136;-45
2022/08/10 07:35:20;;;;;;;2.80;1.50;;;;;;;;;;4996978;28;20374;-45
2022/08/10 07:37:50;;;;;;;1.90;1.30;;;;;;;;;;4997220;28;20176;-49
2022/08/10 07:40:32;;;;;;;3.70;1.38;;;;;;;;;;5015889;28;20048;-46
2022/08/10 07:43:10;;;;;;;7.60;1.80;;;;;;;;;;5028836;28;20053;-45
2022/08/10 07:45:37;;;;;;;6.03;1.88;;;;;;;;;;5002564;28;20058;-45
2022/08/10 07:48:09;;;;;;;9.98;2.00;;;;;;;;;;5031626;28;20060;-46
2022/08/10 07:50:37;;;;;;;1.85;1.38;;;;;;;;;;5036246;28;20053;-45
2022/08/10 07:53:15;;;;;;;2.50;1.55;;;;;;;;;;5023352;28;20054;-45
2022/08/10 07:55:44;;;;;;;3.45;1.50;;;;;;;;;;5028962;28;20067;-46
2022/08/10 07:58:15;;;;;;;4.85;1.92;;;;;;;;;;5034230;28;20045;-45
2022/08/10 08:00:46;;;;;;;2.75;1.88;;;;;;;;;;5016348;28;20049;-45
2022/08/10 08:03:23;;;;;;;2.13;1.30;;;;;;;;;;5016740;28;20077;-46
2022/08/10 08:05:52;;;;;;;2.17;1.27;;;;;;;;;;5015928;28;20056;-46
2022/08/10 08:08:20;;;;;;;2.38;1.70;;;;;;;;;;5016095;28;20081;-47
2022/08/10 08:10:51;;;;;;;3.40;1.58;;;;;;;;;;5015804;28;20054;-49
2022/08/10 08:13:21;;;;;;;2.42;1.42;;;;;;;;;;5022278;28;20053;-47
2022/08/10 08:15:59;;;;;;;3.50;1.42;;;;;;;;;;4996422;28;20065;-49
2022/08/10 08:18:31;;;;;;;2.75;1.60;;;;;;;;;;4996402;28;20065;-46
2022/08/10 08:21:01;;;;;;;2.35;1.20;;;;;;;;;;4996012;28;20051;-49
2022/08/10 08:23:28;;;;;;;2.65;1.60;;;;;;;;;;5009463;28;20492;-46
2022/08/10 08:25:58;;;;;;;3.47;1.73;;;;;;;;;;5015051;28;20050;-46
2022/08/10 08:28:29;;;;;;;3.78;1.70;;;;;;;;;;5014951;28;20398;-46
2022/08/10 08:30:57;;;;;;;2.42;1.55;;;;;;;;;;5015366;28;20081;-45
2022/08/10 08:33:27;;;;;;;3.53;1.52;;;;;;;;;;5014389;28;20057;-47
2022/08/10 08:35:56;;;;;;;5.07;1.30;;;;;;;;;;5033616;28;20132;-45
2022/08/10 08:38:26;;;;;;;4.55;1.40;;;;;;;;;;5034864;28;20045;-46
2022/08/10 08:40:58;;;;;;;9.32;1.90;;;;;;;;;;5035237;28;20057;-45
2022/08/10 08:43:48;;;;;;;3.97;1.60;;;;;;;;;;5035083;28;20152;-45
2022/08/10 08:46:45;;;;;;;2.45;1.33;;;;;;;;;;5024016;28;20065;-49
2022/08/10 08:49:29;;;;;;;2.30;1.45;;;;;;;;;;5002024;28;20050;-46
2022/08/10 08:51:57;;;;;;;;;;;;;;;;;;5014065;28;20068;-48
2022/08/10 08:54:36;;;;;;;3.03;1.50;;;;;;;;;;5015787;28;19972;-46
2022/08/10 08:57:10;;;;;;;4.95;1.73;;;;;;;;;;5020673;28;20045;-45
2022/08/10 08:59:47;;;;;;;2.20;1.40;;;;;;;;;;5024117;28;20050;-47
2022/08/10 09:02:23;;;;;;;5.50;1.23;;;;;;;;;;5015386;28;20060;-46
2022/08/10 09:05:00;;;;;;;3.60;1.45;;;;;;;;;;5026984;28;20054;-45
2022/08/10 09:07:44;;;;;;;1.50;0.90;;;;;;;;;;5015011;28;20050;-48
2022/08/10 09:10:21;;;;;;;4.00;1.50;;;;;;;;;;5013889;28;20058;-48
2022/08/10 09:12:56;;;;;;;2.50;1.40;;;;;;;;;;5009497;28;20061;-44
2022/08/10 09:15:35;;;;;;;5.50;1.20;;;;;;;;;;4995576;28;20069;-49
2022/08/10 09:18:08;;;;;;;6.93;2.08;;;;;;;;;;4995572;28;20061;-48
2022/08/10 09:20:39;;;;;;;2.85;1.50;;;;;;;;;;4998746;28;20068;-45
2022/08/10 09:23:11;;;;;;;8.32;1.98;;;;;;;;;;5012397;28;20049;-45
2022/08/10 09:25:43;;;;;;;2.83;1.50;;;;;;;;;;5027422;28;20057;-50
2022/08/10 09:28:16;;;;;;;4.38;1.42;;;;;;;;;;5032667;28;20077;-48
2022/08/10 09:30:53;;;;;;;4.40;1.85;;;;;;;;;;5024471;28;20059;-47
2022/08/10 09:33:23;;;;;;;4.75;1.75;;;;;;;;;;5021397;28;20063;-48
2022/08/10 09:35:55;;;;;;;6.50;1.50;;;;;;;;;;5032999;28;20056;-46
2022/08/10 09:38:31;;;;;;;8.07;1.45;;;;;;;;;;5018533;28;20045;-45
2022/08/10 09:41:06;;;;;;;3.15;1.30;;;;;;;;;;5030155;28;20382;-45
2022/08/10 09:43:47;;;;;;;7.60;1.40;;;;;;;;;;5020216;28;20049;-45
2022/08/10 09:46:29;;;;;;;3.78;1.15;;;;;;;;;;5024430;28;20056;-46
2022/08/10 09:49:00;;;;;;;3.78;1.63;;;;;;;;;;5023678;28;20045;-49
2022/08/10 09:51:34;;;;;;;4.65;1.52;;;;;;;;;;5017735;28;20371;-46
2022/08/10 09:54:11;;;;;;;3.40;1.30;;;;;;;;;;5012902;28;20089;-47
2022/08/10 09:56:47;;;;;;;7.93;1.80;;;;;;;;;;5012175;28;20184;-46
2022/08/10 09:59:24;;;;;;;4.15;1.52;;;;;;;;;;5012372;28;20092;-45
2022/08/10 10:01:57;;;;;;;4.60;1.33;;;;;;;;;;5012944;28;20140;-49
2022/08/10 10:04:33;;;;;;;3.28;1.35;;;;;;;;;;5013241;28;20148;-45
2022/08/10 10:07:09;;;;;;;5.60;1.48;;;;;;;;;;5013338;28;20076;-49
2022/08/10 10:09:42;;;;;;;3.33;1.30;;;;;;;;;;5006396;28;20054;-49
2022/08/10 10:12:16;;;;;;;6.45;1.50;;;;;;;;;;4994442;28;20060;-48
2022/08/10 10:18:02;;;;;;;3.30;1.17;;;;;;;;;;4994135;28;20057;-46
2022/08/10 10:20:53;;;;;;;2.40;1.10;;;;;;;;;;4994205;28;20050;-47
2022/08/10 10:23:32;;;;;;;2.17;1.15;;;;;;;;;;5006058;28;20073;-46
2022/08/10 10:26:06;;;;;;;2.25;0.80;;;;;;;;;;5013219;28;20097;-45
2022/08/10 10:28:38;;;;;;;2.60;0.80;;;;;;;;;;5013093;28;20058;-46
2022/08/10 10:31:11;;;;;;;1.48;0.82;;;;;;;;;;5013349;28;20124;-46
2022/08/10 10:34:02;;;;;;;5.63;1.17;;;;;;;;;;5013561;28;20085;-47
2022/08/10 10:36:32;;;;;;;13.98;2.35;;;;;;;;;;5013661;28;20054;-47
2022/08/10 10:39:01;;;;;;;2.00;0.98;;;;;;;;;;5013134;28;20458;-45
2022/08/10 10:41:40;;;;;;;2.33;1.10;;;;;;;;;;5013448;28;20053;-46
2022/08/10 10:44:13;;;;;;;1.75;1.20;;;;;;;;;;5013539;28;20140;-45
2022/08/10 10:46:59;;;;;;;3.40;1.27;;;;;;;;;;5013398;28;20140;-49
2022/08/10 10:49:42;;;;;;;12.50;1.15;;;;;;;;;;4993901;28;20043;-45
2022/08/10 10:52:20;;;;;;;2.10;1.00;;;;;;;;;;4999436;28;20050;-46
2022/08/10 10:54:50;;;;;;;2.25;0.75;;;;;;;;;;5009806;28;20092;-47
2022/08/10 10:57:30;;;;;;;2.35;1.08;;;;;;;;;;4993741;28;20059;-45
2022/08/10 11:00:10;;;;;;;6.47;1.10;;;;;;;;;;4993754;28;20137;-47
2022/08/10 11:02:48;;;;;;;55.13;5.40;;;;;;;;;;4993804;28;20061;-46
2022/08/10 11:05:27;;;;;;;5.80;1.35;;;;;;;;;;4993525;28;20471;-46
2022/08/10 11:08:03;;;;;;;2.28;0.98;;;;;;;;;;4993770;28;20050;-47
2022/08/10 11:10:35;;;;;;;2.15;0.85;;;;;;;;;;5008455;28;20108;-49
2022/08/10 11:13:28;;;;;;;2.72;1.10;;;;;;;;;;5007090;28;20054;-48
2022/08/10 11:16:02;;;;;;;42.35;4.25;;;;;;;;;;5013138;28;20050;-48
2022/08/10 11:18:38;;;;;;;3.22;1.13;;;;;;;;;;5013477;28;20054;-46
2022/08/10 11:21:15;;;;;;;12.63;1.77;;;;;;;;;;5013149;28;20104;-46
2022/08/10 11:23:45;;;;;;;4.43;1.10;;;;;;;;;;5012883;28;20482;-47
2022/08/10 11:26:17;;;;;;;3.78;0.95;;;;;;;;;;5012468;28;20499;-46
2022/08/10 11:28:55;;;;;;;1.73;1.00;;;;;;;;;;5012835;28;20477;-47
2022/08/10 11:31:25;;;;;;;2.25;0.80;;;;;;;;;;5013095;28;20112;-46
2022/08/10 11:33:59;;;;;;;5.78;1.42;;;;;;;;;;5012738;28;20062;-50
2022/08/10 11:36:43;;;;;;;6.23;1.70;;;;;;;;;;5013214;28;20054;-49
2022/08/10 11:39:22;;;;;;;4.07;1.10;;;;;;;;;;5013081;28;20116;-45
2022/08/10 11:41:53;;;;;;;3.78;1.10;;;;;;;;;;5012960;28;20092;-48
2022/08/10 11:44:25;;;;;;;1.58;1.00;;;;;;;;;;5012188;28;20344;-45
2022/08/10 11:46:56;;;;;;;3.28;1.27;;;;;;;;;;5012598;28;20080;-48
2022/08/10 11:49:29;;;;;;;3.47;1.30;;;;;;;;;;5012661;28;20529;-49
2022/08/10 11:52:04;;;;;;;4.87;1.20;;;;;;;;;;5012874;28;20046;-48
2022/08/10 11:54:32;;;;;;;;;;;;;;;;;;5013165;28;20293;-47
2022/08/10 11:57:02;;;;;;;2.65;1.20;;;;;;;;;;5012763;28;19936;-44
2022/08/10 12:02:19;;;;;;;2.92;1.45;;;;;;;;;;5012743;28;20473;-47
2022/08/10 12:04:52;;;;;;;3.08;1.60;;;;;;;;;;5012750;28;20065;-46
2022/08/10 12:07:27;;;;;;;59.10;4.97;;;;;;;;;;5014572;28;20084;-45
2022/08/10 12:09:56;;;;;;;8.82;1.85;;;;;;;;;;5021174;28;20108;-45
2022/08/10 12:12:23;;;;;;;3.45;1.15;;;;;;;;;;5025451;28;20053;-45
2022/08/10 12:14:55;;;;;;;3.58;1.30;;;;;;;;;;5020915;28;20129;-47
2022/08/10 12:17:27;;;;;;;6.55;1.40;;;;;;;;;;5036127;28;20149;-46
2022/08/10 12:20:00;;;;;;;2.88;1.20;;;;;;;;;;5036121;28;20049;-45
2022/08/10 12:22:38;;;;;;;2.30;1.20;;;;;;;;;;5034995;28;20055;-46
2022/08/10 12:25:08;;;;;;;15.80;2.88;;;;;;;;;;5026416;28;20137;-46
2022/08/10 12:27:45;;;;;;;2.15;0.90;;;;;;;;;;5016811;28;20076;-45
2022/08/10 12:30:17;;;;;;;3.08;1.30;;;;;;;;;;5019460;28;20081;-47
2022/08/10 12:32:51;;;;;;;8.80;1.23;;;;;;;;;;5021580;28;20105;-46
2022/08/10 12:35:25;;;;;;;2.97;1.50;;;;;;;;;;5020174;28;20058;-47
2022/08/10 12:38:00;;;;;;;2.25;1.00;;;;;;;;;;5016192;28;20054;-46
2022/08/10 12:40:31;;;;;;;6.00;1.00;;;;;;;;;;5018527;28;20049;-45
2022/08/10 12:43:01;;;;;;;4.05;1.23;;;;;;;;;;5023804;28;20054;-48
2022/08/10 12:45:32;;;;;;;3.80;1.10;;;;;;;;;;5019721;28;20127;-48
2022/08/10 12:48:03;;;;;;;7.32;1.50;;;;;;;;;;5019849;28;20512;-48
2022/08/10 12:50:39;;;;;;;4.78;1.30;;;;;;;;;;5006422;28;20046;-49
2022/08/10 12:53:21;;;;;;;5.50;1.13;;;;;;;;;;5013442;28;20478;-46
2022/08/10 12:55:52;;;;;;;4.80;1.40;;;;;;;;;;5016920;28;20049;-46
2022/08/10 12:58:19;;;;;;;8.50;1.20;;;;;;;;;;5013250;28;20061;-46
2022/08/10 13:00:55;;;;;;;2.78;0.98;;;;;;;;;;5005100;28;20075;-47
2022/08/10 13:03:24;;;;;;;3.42;1.05;;;;;;;;;;5002626;28;20049;-48
2022/08/10 13:05:51;;;;;;;1.95;1.00;;;;;;;;;;5002224;28;20101;-46
2022/08/10 13:11:27;;;;;;;1.85;0.90;;;;;;;;;;5000246;28;20340;-44
2022/08/10 13:13:55;;;;;;;3.35;0.95;;;;;;;;;;5011305;28;20057;-47
2022/08/10 13:16:23;;;;;;;3.20;1.23;;;;;;;;;;5015411;28;20064;-45
2022/08/10 13:18:54;;;;;;;5.30;1.40;;;;;;;;;;5001424;28;20053;-48
2022/08/10 13:21:21;;;;;;;2.78;1.02;;;;;;;;;;5004200;28;20054;-49
2022/08/10 13:23:57;;;;;;;2.28;0.80;;;;;;;;;;5013366;28;20050;-46
2022/08/10 13:26:34;;;;;;;4.75;0.98;;;;;;;;;;5001139;28;20062;-45
2022/08/10 13:29:03;;;;;;;6.10;1.30;;;;;;;;;;5010131;28;20042;-45
2022/08/10 13:31:31;;;;;;;3.78;1.30;;;;;;;;;;5030318;28;20052;-45
2022/08/10 13:34:07;;;;;;;5.72;1.30;;;;;;;;;;5014628;28;20054;-44
2022/08/10 13:36:37;;;;;;;30.40;4.13;;;;;;;;;;5014061;28;20532;-47
2022/08/10 13:39:06;;;;;;;2.28;1.00;;;;;;;;;;5014204;28;20054;-46
2022/08/10 13:41:39;;;;;;;3.25;1.52;;;;;;;;;;5013091;28;20076;-45
2022/08/10 13:44:08;;;;;;;3.95;1.15;;;;;;;;;;5013903;28;20053;-45
2022/08/10 13:46:38;;;;;;;3.33;1.02;;;;;;;;;;5014562;28;20061;-46
2022/08/10 13:49:15;;;;;;;2.75;1.10;;;;;;;;;;5014205;28;20061;-47
2022/08/10 13:51:45;;;;;;;10.10;2.40;;;;;;;;;;5014242;28;20188;-45
2022/08/10 13:54:21;;;;;;;2.58;1.02;;;;;;;;;;5014757;28;20053;-45
2022/08/10 13:56:49;;;;;;;22.70;3.05;;;;;;;;;;5024621;28;20393;-45
2022/08/10 13:59:18;;;;;;;3.55;1.10;;;;;;;;;;5013891;28;20057;-45
2022/08/10 14:01:50;;;;;;;2.65;1.35;;;;;;;;;;5014073;28;20547;-45
2022/08/10 14:04:20;;;;;;;10.50;1.98;;;;;;;;;;5013740;28;20085;-48
2022/08/10 14:06:56;;;;;;;5.78;1.33;;;;;;;;;;5001187;28;20062;-44
2022/08/10 14:09:31;;;;;;;2.53;1.52;;;;;;;;;;5013616;28;20050;-47
2022/08/10 14:12:01;;;;;;;3.70;1.20;;;;;;;;;;5001132;28;20049;-48
2022/08/10 14:14:33;;;;;;;20.25;2.78;;;;;;;;;;5012802;28;20057;-48
2022/08/10 14:17:00;;;;;;;4.28;1.45;;;;;;;;;;5005018;28;20107;-47
2022/08/10 14:19:37;;;;;;;4.32;1.90;;;;;;;;;;5008246;28;20133;-47
2022/08/10 14:22:07;;;;;;;6.30;1.60;;;;;;;;;;5006685;28;20077;-45
2022/08/10 14:24:39;;;;;;;6.22;1.50;;;;;;;;;;5013481;28;20386;-46
2022/08/10 14:27:16;;;;;;;8.45;1.58;;;;;;;;;;5014058;28;20458;-45
2022/08/10 14:29:53;;;;;;;6.13;1.40;;;;;;;;;;5009012;28;20058;-46
2022/08/10 14:32:30;;;;;;;5.03;1.73;;;;;;;;;;5004275;28;20351;-45
2022/08/10 14:34:58;;;;;;;6.50;1.60;;;;;;;;;;5013916;28;20050;-45
2022/08/10 14:37:31;;;;;;;2.58;1.10;;;;;;;;;;5000983;28;20140;-46
2022/08/10 14:40:02;;;;;;;3.38;1.30;;;;;;;;;;5003841;28;20486;-45
2022/08/10 14:42:40;;;;;;;3.70;2.30;;;;;;;;;;5007641;28;20093;-45
2022/08/10 14:45:23;;;;;;;4.97;1.40;;;;;;;;;;5009998;28;20054;-46
2022/08/10 14:47:54;;;;;;;3.85;1.27;;;;;;;;;;5001772;28;20132;-46
2022/08/10 14:50:24;;;;;;;17.95;2.45;;;;;;;;;;5000475;28;20054;-48
2022/08/10 14:52:55;;;;;;;4.30;1.45;;;;;;;;;;5013831;28;20054;-47
2022/08/10 14:55:27;;;;;;;5.10;1.27;;;;;;;;;;5011421;28;20050;-45
2022/08/10 14:57:54;;;;;;;6.53;1.95;;;;;;;;;;5003522;28;20057;-45
2022/08/10 15:00:20;;;;;;;4.82;1.55;;;;;;;;;;5019478;28;20049;-47
2022/08/10 15:02:48;;;;;;;2.15;1.00;;;;;;;;;;5013330;28;20053;-45
2022/08/10 15:05:19;;;;;;;2.53;1.17;;;;;;;;;;4999980;28;20061;-44
2022/08/10 15:07:47;;;;;;;4.82;1.15;;;;;;;;;;5003467;28;20050;-49
2022/08/10 15:10:25;;;;;;;1.75;1.00;;;;;;;;;;5011198;28;20107;-49
2022/08/10 15:13:02;;;;;;;1.65;0.90;;;;;;;;;;5005810;28;20046;-45
2022/08/10 15:15:34;;;;;;;4.63;1.40;;;;;;;;;;5000843;28;20111;-49
2022/08/10 15:18:05;;;;;;;2.63;1.00;;;;;;;;;;5000094;28;20418;-48
2022/08/10 15:20:33;;;;;;;7.68;1.35;;;;;;;;;;5004269;28;20102;-46
2022/08/10 15:23:00;;;;;;;4.38;1.50;;;;;;;;;;5003016;28;20058;-45
2022/08/10 15:25:29;;;;;;;3.92;1.45;;;;;;;;;;5019295;28;20062;-46
2022/08/10 15:28:11;;;;;;;4.15;1.17;;;;;;;;;;5012828;28;20054;-46